메인 페이지
METAR-TAF:

METAR-TAF

공항 :

빙괼, 터키

위도: 38-51-40N, 경도: 40-35-33E, 고도: 1063m

현재 날씨관측

예보는 7 시간 59분 전, 11:50시(UTC)에 발표되었습니다.
남남서3kt풍과 서남서풍을 오가는
온도 23°C
습도 19%
기압 1019 hPa
시정 10km 이상
고도 3500ft 상공 구름 조금
고도 12000ft 상공 구름 보통
고도 20000ft 상공 구름 많음

METAR: LTCU 251150Z 21003KT 180V240 9999 FEW035 SCT120 BKN200 23/M02 Q1019

시각: 22:49 (19:49 UTC)

예보

예보는 6 시간 9분 전, 13:40시(UTC)에 발표되었습니다.
예보 대상 시간: 25일 15시부터 25일 24시까지 (UTC)
여러 방향의 바람 2kt
시정 10km 이상
고도 3500ft 상공 구름 조금
고도 10000ft 상공 구름 보통
고도 20000ft 상공 구름 많음
전환 중
25일 16시부터 25일 18시까지 (UTC)
시정 10km 이상
1500m 미만 상공 구름 및 적란운 없음

TAF: LTCU 251340Z 2515/2524 VRB02KT 9999 FEW035 SCT100 BKN200 BECMG 2516/2518 CAVOK

4,000개 이상의 공항 관측 자료 및 예보 (METAR 및 TAF 보고).

지도상에서 검색 가능한 기상관측소가 노란 점과 빨간 점으로 표시되어 있습니다.

기상관측소 명을 보려면 표시 위로 마우스를 이동하세요.

날씨 관측과 예보를 보려면 클릭하세요.

지도 변경 : 확대하려면 엑스 표시가 있는 녹색 버튼, 축소하려면 빼기 표시가 있는 녹색 버튼, 다음 페이지의 지도를 보려면 녹색 화살표를 클릭하세요.


METAR-TAF: